createdAt,value
2023-01-09T00:00:09.991Z,3.72
2023-01-09T00:03:32.779Z,3.74
2023-01-09T00:06:35.745Z,3.75
2023-01-09T00:09:38.572Z,3.72
2023-01-09T00:12:41.462Z,3.72
2023-01-09T00:15:44.303Z,3.73
2023-01-09T00:18:47.231Z,3.75
2023-01-09T00:21:49.980Z,3.75
2023-01-09T00:24:52.771Z,3.77
2023-01-09T00:27:55.530Z,3.77
2023-01-09T00:31:00.603Z,3.77
2023-01-09T00:34:07.363Z,3.74
2023-01-09T00:37:12.078Z,3.67
2023-01-09T00:40:16.830Z,3.61
2023-01-09T00:43:22.329Z,3.59
2023-01-09T00:46:30.727Z,3.55
2023-01-09T00:49:38.010Z,3.56
2023-01-09T00:52:41.281Z,3.57
2023-01-09T00:55:44.261Z,3.60
2023-01-09T00:58:48.219Z,3.57
2023-01-09T01:01:51.462Z,3.58
2023-01-09T01:05:13.442Z,3.56
2023-01-09T01:08:19.217Z,3.54
2023-01-09T01:11:22.810Z,3.55
2023-01-09T01:14:27.103Z,3.57
2023-01-09T01:17:29.897Z,3.57
2023-01-09T01:20:32.753Z,3.60
2023-01-09T01:23:37.136Z,3.60
2023-01-09T01:26:39.961Z,3.63
2023-01-09T01:29:42.836Z,3.66
2023-01-09T01:32:46.182Z,3.65
2023-01-09T01:35:50.018Z,3.67
2023-01-09T01:38:53.232Z,3.69
2023-01-09T01:41:56.068Z,3.73
2023-01-09T01:45:00.877Z,3.76
2023-01-09T01:48:14.012Z,3.79
2023-01-09T01:51:19.700Z,3.83
2023-01-09T01:54:26.522Z,3.87
2023-01-09T01:57:31.081Z,3.93
2023-01-09T02:00:41.947Z,3.97
2023-01-09T02:03:45.812Z,4.02
2023-01-09T02:06:52.227Z,4.05
2023-01-09T02:09:55.521Z,4.10
2023-01-09T02:12:59.213Z,4.16
2023-01-09T02:16:11.105Z,4.22
2023-01-09T02:19:36.019Z,4.23
2023-01-09T02:23:00.505Z,4.26
2023-01-09T02:26:15.250Z,4.26
2023-01-09T02:29:56.599Z,4.27
2023-01-09T02:33:39.586Z,4.27
2023-01-09T02:36:59.227Z,4.23
2023-01-09T02:40:19.522Z,4.22
2023-01-09T02:43:23.632Z,4.24
2023-01-09T02:46:26.527Z,4.27
2023-01-09T02:49:29.741Z,4.29
2023-01-09T02:52:35.512Z,4.31
2023-01-09T02:55:57.206Z,4.32
2023-01-09T02:59:38.408Z,4.33
2023-01-09T03:03:27.750Z,4.36
2023-01-09T03:07:08.159Z,4.36
2023-01-09T03:11:00.698Z,4.38
2023-01-09T03:14:11.627Z,4.39
2023-01-09T03:17:22.927Z,4.38
2023-01-09T03:20:27.944Z,4.37
2023-01-09T03:24:05.943Z,4.36
2023-01-09T03:27:09.523Z,4.34
2023-01-09T03:30:12.924Z,4.33
2023-01-09T03:33:15.673Z,4.29
2023-01-09T03:36:20.833Z,4.24
2023-01-09T03:39:23.601Z,4.20
2023-01-09T03:42:26.483Z,4.17
2023-01-09T03:45:29.443Z,4.12
2023-01-09T03:48:33.068Z,4.09
2023-01-09T03:51:35.770Z,4.06
2023-01-09T03:54:39.441Z,4.02
2023-01-09T03:57:42.420Z,3.99
2023-01-09T04:00:46.753Z,3.97
2023-01-09T04:03:49.623Z,3.94
2023-01-09T04:06:52.374Z,3.93
2023-01-09T04:09:55.071Z,3.89
2023-01-09T04:12:57.897Z,3.85
2023-01-09T04:16:00.947Z,3.85
2023-01-09T04:19:03.790Z,3.85
2023-01-09T04:22:06.503Z,3.83
2023-01-09T04:25:09.565Z,3.81
2023-01-09T04:28:12.425Z,3.77
2023-01-09T04:31:15.341Z,3.75
2023-01-09T04:34:18.586Z,3.73
2023-01-09T04:37:22.908Z,3.68
2023-01-09T04:40:25.785Z,3.68
2023-01-09T04:43:28.558Z,3.67
2023-01-09T04:46:31.431Z,3.65
2023-01-09T04:49:34.521Z,3.63
2023-01-09T04:52:39.008Z,3.62
2023-01-09T04:55:43.040Z,3.61
2023-01-09T04:58:45.751Z,3.61
2023-01-09T05:01:48.580Z,3.61
2023-01-09T05:04:51.673Z,3.64
2023-01-09T05:07:54.633Z,3.64
2023-01-09T05:10:57.417Z,3.64
2023-01-09T05:14:00.213Z,3.64
2023-01-09T05:17:02.930Z,3.64
2023-01-09T05:20:06.366Z,3.63
2023-01-09T05:23:09.338Z,3.62
2023-01-09T05:26:12.086Z,3.63
2023-01-09T05:29:14.791Z,3.62
2023-01-09T05:32:19.703Z,3.64
2023-01-09T05:35:23.215Z,3.64
2023-01-09T05:38:26.081Z,3.67
2023-01-09T05:41:28.867Z,3.68
2023-01-09T05:44:31.570Z,3.69
2023-01-09T05:47:34.409Z,3.70
2023-01-09T05:50:37.384Z,3.70
2023-01-09T05:53:41.072Z,3.70
2023-01-09T05:56:43.859Z,3.69
2023-01-09T05:59:46.736Z,3.69
2023-01-09T06:02:49.558Z,3.67
2023-01-09T06:05:52.395Z,3.65
2023-01-09T06:08:55.370Z,3.63
2023-01-09T06:11:58.562Z,3.64
2023-01-09T06:15:01.532Z,3.64
2023-01-09T06:18:04.814Z,3.62
2023-01-09T06:21:07.702Z,3.62
2023-01-09T06:24:10.678Z,3.62
2023-01-09T06:27:13.658Z,3.64
2023-01-09T06:30:16.828Z,3.66
2023-01-09T06:33:20.177Z,3.67
2023-01-09T06:36:23.219Z,3.69
2023-01-09T06:39:26.016Z,3.70
2023-01-09T06:42:30.910Z,3.70
2023-01-09T06:45:34.079Z,3.72
2023-01-09T06:48:37.026Z,3.72
2023-01-09T06:51:39.963Z,3.72
2023-01-09T06:54:42.751Z,3.69
2023-01-09T06:57:45.622Z,3.70
2023-01-09T07:00:49.711Z,3.70
2023-01-09T07:03:52.724Z,3.67
2023-01-09T07:06:55.501Z,3.67
2023-01-09T07:09:58.221Z,3.61
2023-01-09T07:13:01.322Z,3.63
2023-01-09T07:16:05.601Z,3.65
2023-01-09T07:19:08.465Z,3.70
2023-01-09T07:22:11.499Z,3.72
2023-01-09T07:25:14.302Z,3.76
2023-01-09T07:28:17.089Z,3.80
2023-01-09T07:31:19.912Z,3.83
2023-01-09T07:34:22.909Z,3.81
2023-01-09T07:37:25.917Z,3.79
2023-01-09T07:40:28.697Z,3.82
2023-01-09T07:43:31.503Z,3.87
2023-01-09T07:46:34.402Z,3.91
2023-01-09T07:49:37.402Z,3.95
2023-01-09T07:52:40.210Z,3.99
2023-01-09T07:55:43.813Z,4.04
2023-01-09T07:58:46.760Z,4.06
2023-01-09T08:01:49.627Z,4.08
2023-01-09T08:04:52.565Z,4.11
2023-01-09T08:07:55.276Z,4.18
2023-01-09T08:10:58.147Z,4.22
2023-01-09T08:14:00.906Z,4.26
2023-01-09T08:17:03.740Z,4.32
2023-01-09T08:20:06.983Z,4.38
2023-01-09T08:23:09.833Z,4.43
2023-01-09T08:26:12.778Z,4.47
2023-01-09T08:29:16.833Z,4.52
2023-01-09T08:32:19.638Z,4.55
2023-01-09T08:35:22.596Z,4.59
2023-01-09T08:38:25.409Z,4.63
2023-01-09T08:41:46.980Z,4.66
2023-01-09T08:45:08.481Z,4.72
2023-01-09T08:48:11.864Z,4.77
2023-01-09T08:51:15.171Z,4.80
2023-01-09T08:54:17.888Z,4.83
2023-01-09T08:57:20.630Z,4.86
2023-01-09T09:00:25.259Z,4.88
2023-01-09T09:03:28.153Z,4.92
2023-01-09T09:06:32.538Z,4.95
2023-01-09T09:09:35.271Z,4.98
2023-01-09T09:12:38.030Z,4.98
2023-01-09T09:15:40.977Z,4.97
2023-01-09T09:18:43.937Z,4.95
2023-01-09T09:21:46.911Z,5.00
2023-01-09T09:24:49.679Z,5.02
2023-01-09T09:27:53.386Z,5.05
2023-01-09T09:30:56.395Z,5.10
2023-01-09T09:33:59.182Z,5.15
2023-01-09T09:37:02.110Z,5.19
2023-01-09T09:40:17.870Z,5.20
2023-01-09T09:43:52.902Z,5.19
2023-01-09T09:46:55.633Z,5.23
2023-01-09T09:50:16.745Z,5.24
2023-01-09T09:53:30.608Z,5.28
2023-01-09T09:56:40.679Z,5.30
2023-01-09T09:59:44.682Z,5.34
2023-01-09T10:02:53.695Z,5.37
2023-01-09T10:06:00.501Z,5.37
2023-01-09T10:09:20.691Z,5.38
2023-01-09T10:12:30.738Z,5.42
2023-01-09T10:15:50.246Z,5.45
2023-01-09T10:18:58.918Z,5.48
2023-01-09T10:22:01.594Z,5.50
2023-01-09T10:25:29.631Z,5.53
2023-01-09T10:28:41.400Z,5.57
2023-01-09T10:32:11.914Z,5.59
2023-01-09T10:35:47.304Z,5.62
2023-01-09T10:38:56.022Z,5.64
2023-01-09T10:42:06.518Z,5.69
2023-01-09T10:45:28.742Z,5.70
2023-01-09T10:48:37.589Z,5.75
2023-01-09T10:51:48.989Z,5.78
2023-01-09T10:54:56.913Z,5.83
2023-01-09T10:58:04.527Z,5.87
2023-01-09T11:01:07.907Z,5.90
2023-01-09T11:04:22.938Z,5.89
2023-01-09T11:07:31.788Z,5.87
2023-01-09T11:10:55.410Z,5.96
2023-01-09T11:14:18.579Z,6.18
2023-01-09T11:17:26.983Z,6.28
2023-01-09T11:20:30.270Z,6.26
2023-01-09T11:23:33.647Z,6.28
2023-01-09T11:26:36.495Z,6.31
2023-01-09T11:29:40.455Z,6.42
2023-01-09T11:32:47.359Z,6.68
2023-01-09T11:35:56.110Z,6.66
2023-01-09T11:39:01.203Z,6.64
2023-01-09T11:42:07.045Z,6.60
2023-01-09T11:45:32.418Z,6.63
2023-01-09T11:48:57.219Z,6.62
2023-01-09T11:52:20.573Z,6.65
2023-01-09T11:55:27.254Z,6.64
2023-01-09T11:58:35.295Z,6.63
2023-01-09T12:02:00.339Z,6.65
2023-01-09T12:05:12.184Z,6.66
2023-01-09T12:08:33.169Z,6.64
2023-01-09T12:12:01.534Z,6.65
2023-01-09T12:15:47.080Z,6.66
2023-01-09T12:19:05.831Z,6.66
2023-01-09T12:22:36.848Z,6.67
2023-01-09T12:26:16.004Z,6.66
2023-01-09T12:29:38.059Z,6.65
2023-01-09T12:32:53.827Z,6.62
2023-01-09T12:36:29.453Z,6.61
2023-01-09T12:39:57.512Z,6.63
2023-01-09T12:43:07.340Z,6.63
2023-01-09T12:46:23.197Z,6.65
2023-01-09T12:49:37.699Z,6.68
2023-01-09T12:52:56.391Z,6.68
2023-01-09T12:56:03.284Z,6.69
2023-01-09T12:59:45.158Z,6.72
2023-01-09T13:03:03.784Z,6.75
2023-01-09T13:06:16.255Z,6.75
2023-01-09T13:09:37.663Z,6.76
2023-01-09T13:12:44.071Z,6.76
2023-01-09T13:15:53.148Z,6.74
2023-01-09T13:19:13.150Z,6.72
2023-01-09T13:22:18.182Z,6.71
2023-01-09T13:26:04.810Z,6.71
2023-01-09T13:29:10.323Z,6.74
2023-01-09T13:32:21.114Z,6.75
2023-01-09T13:35:24.298Z,6.76
2023-01-09T13:38:30.617Z,6.77
2023-01-09T13:41:52.262Z,6.78
2023-01-09T13:45:08.751Z,6.76
2023-01-09T13:48:12.134Z,6.78
2023-01-09T13:51:42.901Z,6.79
2023-01-09T13:54:52.033Z,6.78
2023-01-09T13:58:04.482Z,6.77
2023-01-09T14:01:34.573Z,6.77
2023-01-09T14:04:43.100Z,6.80
2023-01-09T14:07:49.543Z,6.80
2023-01-09T14:11:04.107Z,6.78
2023-01-09T14:14:24.295Z,6.79
2023-01-09T14:17:35.430Z,6.84
2023-01-09T14:20:42.326Z,6.87
2023-01-09T14:23:59.234Z,6.89
2023-01-09T14:27:04.044Z,6.89
2023-01-09T14:30:26.185Z,6.90
2023-01-09T14:33:30.951Z,6.91
2023-01-09T14:36:35.608Z,6.93
2023-01-09T14:39:43.525Z,6.96
2023-01-09T14:42:53.322Z,6.98
2023-01-09T14:46:03.741Z,7.04
2023-01-09T14:49:22.388Z,7.04
2023-01-09T14:52:30.399Z,7.06
2023-01-09T14:55:44.059Z,7.07
2023-01-09T14:58:46.895Z,7.09
2023-01-09T15:01:55.458Z,7.14
2023-01-09T15:05:06.069Z,7.31
2023-01-09T15:08:17.242Z,7.51
2023-01-09T15:11:20.204Z,7.78
2023-01-09T15:14:40.428Z,7.67
2023-01-09T15:17:46.557Z,7.53
2023-01-09T15:20:57.944Z,7.40
2023-01-09T15:24:28.783Z,7.30
2023-01-09T15:27:31.797Z,7.27
2023-01-09T15:30:36.398Z,7.25
2023-01-09T15:33:41.017Z,7.24
2023-01-09T15:36:44.031Z,7.24
2023-01-09T15:39:47.958Z,7.23
2023-01-09T15:42:58.125Z,7.22
2023-01-09T15:46:01.642Z,7.21
2023-01-09T15:49:04.649Z,7.22
2023-01-09T15:52:12.122Z,7.25
2023-01-09T15:55:35.073Z,7.23
2023-01-09T15:58:49.763Z,7.17
2023-01-09T16:02:24.486Z,7.10
2023-01-09T16:05:31.478Z,7.05
2023-01-09T16:08:42.519Z,6.99
2023-01-09T16:11:55.496Z,6.94
2023-01-09T16:15:00.366Z,6.91
2023-01-09T16:18:06.229Z,6.87
2023-01-09T16:21:11.914Z,6.86
2023-01-09T16:24:14.741Z,6.86
2023-01-09T16:27:17.622Z,6.83
2023-01-09T16:30:26.802Z,6.81
2023-01-09T16:33:31.462Z,6.78
2023-01-09T16:36:35.966Z,6.78
2023-01-09T16:39:38.806Z,6.75
2023-01-09T16:43:00.379Z,6.71
2023-01-09T16:46:03.254Z,6.68
2023-01-09T16:49:24.736Z,6.65
2023-01-09T16:52:27.608Z,6.66
2023-01-09T16:55:30.385Z,6.67
2023-01-09T16:58:36.338Z,6.61
2023-01-09T17:01:39.198Z,6.53
2023-01-09T17:04:42.023Z,6.46
2023-01-09T17:07:44.866Z,6.42
2023-01-09T17:10:48.150Z,6.41
2023-01-09T17:13:51.237Z,6.53
2023-01-09T17:16:54.135Z,6.57
2023-01-09T17:19:56.932Z,6.59
2023-01-09T17:22:59.880Z,6.62
2023-01-09T17:26:22.122Z,6.61
2023-01-09T17:29:25.581Z,6.57
2023-01-09T17:32:30.684Z,6.56
2023-01-09T17:35:33.473Z,6.54
2023-01-09T17:38:36.363Z,6.51
2023-01-09T17:41:39.223Z,6.47
2023-01-09T17:44:41.995Z,6.46
2023-01-09T17:47:47.030Z,6.48
2023-01-09T17:50:49.841Z,6.50
2023-01-09T17:53:52.896Z,6.51
2023-01-09T17:56:55.833Z,6.46
2023-01-09T17:59:59.168Z,6.39
2023-01-09T18:03:04.067Z,6.33
2023-01-09T18:06:09.490Z,6.29
2023-01-09T18:09:17.503Z,6.28
2023-01-09T18:12:20.591Z,6.29
2023-01-09T18:15:24.608Z,6.28
2023-01-09T18:18:28.642Z,6.26
2023-01-09T18:21:31.417Z,6.25
2023-01-09T18:24:34.449Z,6.21
2023-01-09T18:27:37.516Z,6.18
2023-01-09T18:30:40.514Z,6.16
2023-01-09T18:33:46.181Z,6.13
2023-01-09T18:36:49.085Z,6.12
2023-01-09T18:39:52.120Z,6.09
2023-01-09T18:42:56.333Z,6.07
2023-01-09T18:45:59.371Z,6.06
2023-01-09T18:49:04.307Z,6.05
2023-01-09T18:52:07.822Z,6.05
2023-01-09T18:55:10.861Z,6.03
2023-01-09T18:58:13.695Z,6.03
2023-01-09T19:01:17.053Z,6.01
2023-01-09T19:04:20.293Z,6.01
2023-01-09T19:07:23.346Z,5.99
2023-01-09T19:10:26.238Z,6.01
2023-01-09T19:13:31.027Z,6.02
2023-01-09T19:16:33.882Z,6.02
2023-01-09T19:19:36.897Z,6.03
2023-01-09T19:22:39.790Z,6.04
2023-01-09T19:25:43.027Z,6.04
2023-01-09T19:28:46.867Z,6.03
2023-01-09T19:31:49.953Z,6.02
2023-01-09T19:34:52.928Z,6.04
2023-01-09T19:37:55.804Z,6.07
2023-01-09T19:41:09.215Z,6.06
2023-01-09T19:44:12.109Z,6.08
2023-01-09T19:47:14.830Z,6.07
2023-01-09T19:50:18.783Z,6.06
2023-01-09T19:53:21.498Z,6.06
2023-01-09T19:56:27.344Z,6.06
2023-01-09T19:59:30.686Z,6.04
2023-01-09T20:02:33.424Z,6.05
2023-01-09T20:05:36.294Z,6.04
2023-01-09T20:08:39.871Z,6.04
2023-01-09T20:11:44.900Z,6.02
2023-01-09T20:14:47.825Z,5.99
2023-01-09T20:17:50.580Z,5.97
2023-01-09T20:20:53.669Z,5.96
2023-01-09T20:23:58.814Z,5.96
2023-01-09T20:27:01.912Z,5.95
2023-01-09T20:30:05.630Z,5.93
2023-01-09T20:33:08.587Z,5.90
2023-01-09T20:36:12.878Z,5.85
2023-01-09T20:39:15.825Z,5.83
2023-01-09T20:42:18.558Z,5.81
2023-01-09T20:45:21.270Z,5.82
2023-01-09T20:48:24.001Z,5.86
2023-01-09T20:51:27.748Z,5.86
2023-01-09T20:54:30.508Z,5.87
2023-01-09T20:57:33.362Z,5.87
2023-01-09T21:00:36.337Z,5.88
2023-01-09T21:03:40.538Z,5.90
2023-01-09T21:06:43.446Z,5.89
2023-01-09T21:09:46.599Z,5.89
2023-01-09T21:12:52.358Z,5.91
2023-01-09T21:16:01.247Z,5.91
2023-01-09T21:19:04.353Z,5.94
2023-01-09T21:22:07.230Z,5.95
2023-01-09T21:25:10.397Z,6.01
2023-01-09T21:28:18.610Z,6.03
2023-01-09T21:31:26.651Z,6.03
2023-01-09T21:34:29.597Z,6.03
2023-01-09T21:37:34.526Z,6.05
2023-01-09T21:40:37.318Z,6.10
2023-01-09T21:43:58.906Z,6.11
2023-01-09T21:47:03.377Z,6.10
2023-01-09T21:50:07.573Z,6.08
2023-01-09T21:53:10.500Z,6.09
2023-01-09T21:56:13.276Z,6.07
2023-01-09T21:59:17.184Z,6.08
2023-01-09T22:02:20.058Z,6.10
2023-01-09T22:05:24.765Z,6.10
2023-01-09T22:08:29.696Z,6.09
2023-01-09T22:11:32.615Z,6.07
2023-01-09T22:14:35.611Z,6.08
2023-01-09T22:17:38.469Z,6.09
2023-01-09T22:20:41.193Z,6.11
2023-01-09T22:23:44.095Z,6.18
2023-01-09T22:26:47.560Z,6.25
2023-01-09T22:29:50.353Z,6.32
2023-01-09T22:32:53.074Z,6.32
2023-01-09T22:35:55.944Z,6.30
2023-01-09T22:39:03.503Z,6.29
2023-01-09T22:42:06.403Z,6.28
2023-01-09T22:45:09.769Z,6.27
2023-01-09T22:48:12.652Z,6.21
2023-01-09T22:51:18.461Z,6.14
2023-01-09T22:54:21.221Z,6.11
2023-01-09T22:57:24.456Z,6.06
2023-01-09T23:00:27.300Z,6.03
2023-01-09T23:03:30.213Z,6.00
2023-01-09T23:06:33.030Z,5.98
2023-01-09T23:09:35.794Z,5.93
2023-01-09T23:12:46.825Z,5.87
2023-01-09T23:15:50.052Z,5.86
2023-01-09T23:18:52.996Z,5.83
2023-01-09T23:21:55.783Z,5.83
2023-01-09T23:24:58.557Z,5.81
2023-01-09T23:28:01.832Z,5.80
2023-01-09T23:31:04.675Z,5.80
2023-01-09T23:34:08.512Z,5.83
2023-01-09T23:37:11.624Z,5.81
2023-01-09T23:40:14.529Z,5.80
2023-01-09T23:43:17.282Z,5.81
2023-01-09T23:46:20.069Z,5.86
2023-01-09T23:49:23.199Z,5.86
2023-01-09T23:52:26.072Z,5.84
2023-01-09T23:55:29.193Z,5.80
2023-01-09T23:58:32.132Z,5.74
